TimePDT,TemperatureF,Dew PointF,Humidity,Sea Level PressureIn,VisibilityMPH,Wind Direction,Wind SpeedMPH,Gust SpeedMPH,PrecipitationIn,Events,Conditions,WindDirDegrees,DateUTC
12:15 AM,57.2,35.6,44,30.07,10.0,East,10.4,-,N/A,,Clear,90,2013-06-16 07:15:00
12:35 AM,60.8,37.4,42,30.07,10.0,South,4.6,-,N/A,,Clear,170,2013-06-16 07:35:00
12:55 AM,57.2,37.4,48,30.08,10.0,WNW,5.8,-,N/A,,Clear,290,2013-06-16 07:55:00
1:15 AM,53.6,35.6,51,30.08,10.0,SW,3.5,-,N/A,,Clear,230,2013-06-16 08:15:00
1:35 AM,55.4,37.4,51,30.08,10.0,SW,3.5,-,N/A,,Clear,220,2013-06-16 08:35:00
1:55 AM,50.0,35.6,58,30.09,10.0,WSW,6.9,-,N/A,,Clear,250,2013-06-16 08:55:00
2:15 AM,48.2,35.6,62,30.08,10.0,SW,3.5,-,N/A,,Clear,220,2013-06-16 09:15:00
2:35 AM,46.4,35.6,66,30.09,10.0,Calm,Calm,-,N/A,,Clear,0,2013-06-16 09:35:00
2:55 AM,44.6,33.8,66,30.09,10.0,Calm,Calm,-,N/A,,Clear,0,2013-06-16 09:55:00
3:15 AM,42.8,33.8,70,30.09,10.0,North,4.6,-,N/A,,Clear,360,2013-06-16 10:15:00
3:35 AM,41.0,32.0,70,30.09,10.0,North,6.9,-,N/A,,Clear,350,2013-06-16 10:35:00
3:55 AM,42.8,33.8,70,30.09,10.0,North,6.9,-,N/A,,Clear,350,2013-06-16 10:55:00
4:15 AM,41.0,35.6,81,30.10,10.0,NNW,8.1,-,N/A,,Clear,330,2013-06-16 11:15:00
4:35 AM,41.0,33.8,76,30.10,10.0,NNW,4.6,-,N/A,,Clear,330,2013-06-16 11:35:00
4:55 AM,39.2,35.6,87,30.10,10.0,North,6.9,-,N/A,,Clear,350,2013-06-16 11:55:00
5:15 AM,39.2,33.8,81,30.11,10.0,North,4.6,-,N/A,,Clear,10,2013-06-16 12:15:00
5:35 AM,41.0,35.6,81,30.11,10.0,Calm,Calm,-,N/A,,Clear,0,2013-06-16 12:35:00
5:55 AM,39.2,33.8,81,30.12,10.0,North,6.9,-,N/A,,Clear,360,2013-06-16 12:55:00
6:15 AM,42.8,35.6,76,30.12,10.0,NW,4.6,-,N/A,,Clear,320,2013-06-16 13:15:00
6:35 AM,46.4,37.4,71,30.12,10.0,Calm,Calm,-,N/A,,Clear,0,2013-06-16 13:35:00
6:55 AM,50.0,39.2,66,30.13,10.0,Calm,Calm,-,N/A,,Clear,0,2013-06-16 13:55:00
7:15 AM,51.8,42.8,71,30.13,10.0,South,3.5,-,N/A,,Clear,180,2013-06-16 14:15:00
7:35 AM,55.4,42.8,63,30.13,10.0,South,4.6,-,N/A,,Clear,190,2013-06-16 14:35:00
7:55 AM,57.2,42.8,59,30.13,10.0,South,5.8,-,N/A,,Clear,180,2013-06-16 14:55:00
8:15 AM,59.0,42.8,55,30.14,10.0,SSW,6.9,-,N/A,,Clear,210,2013-06-16 15:15:00
8:35 AM,60.8,42.8,52,30.14,10.0,South,5.8,-,N/A,,Clear,170,2013-06-16 15:35:00
8:55 AM,60.8,44.6,55,30.15,10.0,SE,8.1,-,N/A,,Clear,140,2013-06-16 15:55:00
9:15 AM,62.6,44.6,52,30.15,10.0,SSE,8.1,-,N/A,,Clear,150,2013-06-16 16:15:00
9:35 AM,64.4,44.6,49,30.14,10.0,SE,10.4,-,N/A,,Clear,140,2013-06-16 16:35:00
9:55 AM,66.2,42.8,43,30.14,10.0,SSE,12.7,-,N/A,,Clear,150,2013-06-16 16:55:00
10:15 AM,68.0,44.6,43,30.13,10.0,SE,11.5,-,N/A,,Clear,140,2013-06-16 17:15:00
10:35 AM,69.8,44.6,40,30.13,10.0,SE,8.1,-,N/A,,Clear,140,2013-06-16 17:35:00
10:55 AM,69.8,42.8,38,30.13,10.0,SSE,9.2,16.1,N/A,,Clear,160,2013-06-16 17:55:00
11:15 AM,71.6,42.8,35,30.13,10.0,SE,9.2,-,N/A,,Clear,130,2013-06-16 18:15:00
11:35 AM,71.6,42.8,35,30.13,10.0,SE,11.5,-,N/A,,Clear,140,2013-06-16 18:35:00
11:55 AM,73.4,41.0,31,30.13,10.0,SSE,9.2,-,N/A,,Clear,150,2013-06-16 18:55:00
12:15 PM,73.4,42.8,33,30.12,10.0,SSE,10.4,17.3,N/A,,Clear,160,2013-06-16 19:15:00
12:35 PM,75.2,39.2,27,30.12,10.0,SSE,13.8,19.6,N/A,,Clear,150,2013-06-16 19:35:00
12:55 PM,75.2,39.2,27,30.12,10.0,SSE,12.7,20.7,N/A,,Clear,150,2013-06-16 19:55:00
1:15 PM,77.0,37.4,24,30.12,10.0,South,10.4,-,N/A,,Partly Cloudy,190,2013-06-16 20:15:00
1:35 PM,73.4,32.0,22,30.11,10.0,SW,10.4,16.1,N/A,,Scattered Clouds,230,2013-06-16 20:35:00
1:55 PM,78.8,33.8,20,30.11,10.0,SSW,5.8,18.4,N/A,,Partly Cloudy,200,2013-06-16 20:55:00
2:15 PM,78.8,30.2,17,30.11,10.0,WSW,13.8,-,N/A,,Clear,240,2013-06-16 21:15:00
2:35 PM,80.6,30.2,16,30.10,10.0,SW,10.4,20.7,N/A,,Clear,230,2013-06-16 21:35:00
2:55 PM,78.8,28.4,16,30.10,10.0,SW,12.7,17.3,N/A,,Clear,230,2013-06-16 21:55:00
3:15 PM,80.6,28.4,15,30.10,10.0,SW,13.8,19.6,N/A,,Clear,220,2013-06-16 22:15:00
3:35 PM,80.6,28.4,15,30.10,10.0,SSW,12.7,21.9,N/A,,Clear,200,2013-06-16 22:35:00
3:55 PM,80.6,26.6,14,30.10,10.0,South,12.7,24.2,N/A,,Partly Cloudy,180,2013-06-16 22:55:00
4:15 PM,78.8,26.6,15,30.09,10.0,SSW,18.4,23.0,N/A,,Clear,210,2013-06-16 23:15:00
4:35 PM,78.8,26.6,15,30.09,10.0,South,10.4,19.6,N/A,,Clear,180,2013-06-16 23:35:00
4:55 PM,78.8,24.8,14,30.09,10.0,SW,20.7,25.3,N/A,,Clear,220,2013-06-16 23:55:00
5:15 PM,78.8,24.8,14,30.09,10.0,SW,16.1,25.3,N/A,,Clear,220,2013-06-17 00:15:00
5:35 PM,78.8,24.8,14,30.09,10.0,South,16.1,19.6,N/A,,Clear,180,2013-06-17 00:35:00
5:55 PM,77.0,24.8,14,30.09,10.0,SSW,18.4,25.3,N/A,,Clear,210,2013-06-17 00:55:00
6:15 PM,77.0,24.8,14,30.09,10.0,SW,20.7,-,N/A,,Clear,220,2013-06-17 01:15:00
6:35 PM,75.2,24.8,15,30.09,10.0,SSW,19.6,-,N/A,,Clear,210,2013-06-17 01:35:00
6:55 PM,75.2,24.8,15,30.10,10.0,SSW,17.3,20.7,N/A,,Clear,210,2013-06-17 01:55:00
7:15 PM,73.4,26.6,18,30.10,10.0,SSW,17.3,-,N/A,,Clear,210,2013-06-17 02:15:00
7:35 PM,71.6,26.6,19,30.10,10.0,SSW,13.8,-,N/A,,Clear,210,2013-06-17 02:35:00
7:55 PM,69.8,30.2,23,30.11,10.0,SSW,10.4,-,N/A,,Clear,200,2013-06-17 02:55:00
8:15 PM,66.2,30.2,26,30.11,10.0,South,8.1,-,N/A,,Clear,190,2013-06-17 03:15:00
8:35 PM,62.6,30.2,30,30.12,10.0,SSW,8.1,-,N/A,,Clear,200,2013-06-17 03:35:00
8:55 PM,57.2,32.0,38,30.12,10.0,South,8.1,-,N/A,,Clear,190,2013-06-17 03:55:00
9:15 PM,53.6,33.8,47,30.13,10.0,South,8.1,-,N/A,,Clear,190,2013-06-17 04:15:00
9:35 PM,51.8,35.6,54,30.14,10.0,SE,5.8,-,N/A,,Clear,130,2013-06-17 04:35:00
9:55 PM,51.8,37.4,58,30.14,10.0,SE,10.4,-,N/A,,Clear,130,2013-06-17 04:55:00
10:15 PM,57.2,33.8,41,30.16,10.0,Calm,Calm,-,N/A,,Clear,0,2013-06-17 05:15:00
10:35 PM,53.6,35.6,51,30.16,10.0,SE,4.6,-,N/A,,Clear,140,2013-06-17 05:35:00
10:55 PM,51.8,37.4,58,30.17,10.0,South,6.9,-,N/A,,Clear,170,2013-06-17 05:55:00
11:15 PM,51.8,35.6,54,30.17,10.0,Calm,Calm,-,N/A,,Clear,0,2013-06-17 06:15:00
11:35 PM,48.2,35.6,62,30.18,10.0,SE,9.2,-,N/A,,Clear,130,2013-06-17 06:35:00
11:55 PM,51.8,39.2,62,30.18,10.0,South,5.8,-,N/A,,Clear,170,2013-06-17 06:55:00